sensor_id;sensor_type;location;lat;lon;timestamp;P1;durP1;ratioP1;P2;durP2;ratioP2
19329;SDS011;9799;48.214;16.388;2023-02-03T00:01:23;4.17;;;3.60;;
19329;SDS011;9799;48.214;16.388;2023-02-03T00:04:44;4.33;;;3.67;;
19329;SDS011;9799;48.214;16.388;2023-02-03T00:08:06;6.60;;;4.00;;
19329;SDS011;9799;48.214;16.388;2023-02-03T00:11:28;5.00;;;3.90;;
19329;SDS011;9799;48.214;16.388;2023-02-03T00:14:51;5.37;;;3.60;;
19329;SDS011;9799;48.214;16.388;2023-02-03T00:18:12;5.80;;;3.90;;
19329;SDS011;9799;48.214;16.388;2023-02-03T00:21:33;3.87;;;3.50;;
19329;SDS011;9799;48.214;16.388;2023-02-03T00:24:55;3.83;;;3.50;;
19329;SDS011;9799;48.214;16.388;2023-02-03T00:28:17;5.70;;;4.30;;
19329;SDS011;9799;48.214;16.388;2023-02-03T00:31:38;6.63;;;3.80;;
19329;SDS011;9799;48.214;16.388;2023-02-03T00:34:59;4.03;;;3.47;;
19329;SDS011;9799;48.214;16.388;2023-02-03T00:38:20;4.30;;;3.70;;
19329;SDS011;9799;48.214;16.388;2023-02-03T00:41:43;5.67;;;3.87;;
19329;SDS011;9799;48.214;16.388;2023-02-03T00:45:04;4.47;;;3.73;;
19329;SDS011;9799;48.214;16.388;2023-02-03T00:48:26;7.13;;;4.13;;
19329;SDS011;9799;48.214;16.388;2023-02-03T00:51:47;6.27;;;4.50;;
19329;SDS011;9799;48.214;16.388;2023-02-03T00:55:09;7.30;;;4.37;;
19329;SDS011;9799;48.214;16.388;2023-02-03T00:58:31;5.53;;;4.60;;
19329;SDS011;9799;48.214;16.388;2023-02-03T01:01:52;5.03;;;4.43;;
19329;SDS011;9799;48.214;16.388;2023-02-03T01:05:14;5.20;;;4.67;;
19329;SDS011;9799;48.214;16.388;2023-02-03T01:08:35;5.00;;;4.17;;
19329;SDS011;9799;48.214;16.388;2023-02-03T01:11:56;11.73;;;4.97;;
19329;SDS011;9799;48.214;16.388;2023-02-03T01:15:19;4.80;;;4.10;;
19329;SDS011;9799;48.214;16.388;2023-02-03T01:18:40;6.70;;;4.43;;
19329;SDS011;9799;48.214;16.388;2023-02-03T01:22:01;4.60;;;4.00;;
19329;SDS011;9799;48.214;16.388;2023-02-03T01:25:22;4.30;;;3.93;;
19329;SDS011;9799;48.214;16.388;2023-02-03T01:28:48;4.20;;;3.90;;
19329;SDS011;9799;48.214;16.388;2023-02-03T01:32:11;4.10;;;3.70;;
19329;SDS011;9799;48.214;16.388;2023-02-03T01:35:33;5.10;;;4.10;;
19329;SDS011;9799;48.214;16.388;2023-02-03T01:38:54;4.57;;;3.90;;
19329;SDS011;9799;48.214;16.388;2023-02-03T01:42:16;5.50;;;4.23;;
19329;SDS011;9799;48.214;16.388;2023-02-03T01:45:37;5.67;;;4.03;;
19329;SDS011;9799;48.214;16.388;2023-02-03T01:49:03;5.10;;;4.13;;
19329;SDS011;9799;48.214;16.388;2023-02-03T01:52:27;4.63;;;3.60;;
19329;SDS011;9799;48.214;16.388;2023-02-03T01:55:49;4.70;;;4.30;;
19329;SDS011;9799;48.214;16.388;2023-02-03T01:59:11;4.43;;;3.60;;
19329;SDS011;9799;48.214;16.388;2023-02-03T02:02:35;4.07;;;3.70;;
19329;SDS011;9799;48.214;16.388;2023-02-03T02:05:59;4.67;;;3.97;;
19329;SDS011;9799;48.214;16.388;2023-02-03T02:09:23;3.93;;;3.47;;
19329;SDS011;9799;48.214;16.388;2023-02-03T02:12:45;3.80;;;2.97;;
19329;SDS011;9799;48.214;16.388;2023-02-03T02:16:09;3.93;;;3.53;;
19329;SDS011;9799;48.214;16.388;2023-02-03T02:19:43;4.20;;;3.80;;
19329;SDS011;9799;48.214;16.388;2023-02-03T02:23:35;4.43;;;3.57;;
19329;SDS011;9799;48.214;16.388;2023-02-03T02:27:19;3.60;;;3.30;;
19329;SDS011;9799;48.214;16.388;2023-02-03T02:31:11;2.83;;;2.63;;
19329;SDS011;9799;48.214;16.388;2023-02-03T02:35:09;2.70;;;2.30;;
19329;SDS011;9799;48.214;16.388;2023-02-03T02:38:40;2.10;;;2.00;;
19329;SDS011;9799;48.214;16.388;2023-02-03T02:42:11;2.20;;;2.00;;
19329;SDS011;9799;48.214;16.388;2023-02-03T02:45:39;2.20;;;2.00;;
19329;SDS011;9799;48.214;16.388;2023-02-03T02:49:06;3.20;;;1.70;;
19329;SDS011;9799;48.214;16.388;2023-02-03T02:52:35;2.30;;;1.70;;
19329;SDS011;9799;48.214;16.388;2023-02-03T02:55:59;2.33;;;2.10;;
19329;SDS011;9799;48.214;16.388;2023-02-03T02:59:25;1.73;;;1.40;;
19329;SDS011;9799;48.214;16.388;2023-02-03T03:02:46;1.93;;;1.40;;
19329;SDS011;9799;48.214;16.388;2023-02-03T03:06:08;1.77;;;1.20;;
19329;SDS011;9799;48.214;16.388;2023-02-03T03:09:35;0.90;;;0.90;;
19329;SDS011;9799;48.214;16.388;2023-02-03T03:13:01;2.60;;;1.17;;
19329;SDS011;9799;48.214;16.388;2023-02-03T03:16:25;1.10;;;1.00;;
19329;SDS011;9799;48.214;16.388;2023-02-03T03:19:49;2.60;;;1.10;;
19329;SDS011;9799;48.214;16.388;2023-02-03T03:23:14;1.20;;;0.93;;
19329;SDS011;9799;48.214;16.388;2023-02-03T03:26:45;0.90;;;0.90;;
19329;SDS011;9799;48.214;16.388;2023-02-03T03:30:10;0.80;;;0.80;;
19329;SDS011;9799;48.214;16.388;2023-02-03T03:33:35;2.97;;;0.90;;
19329;SDS011;9799;48.214;16.388;2023-02-03T03:36:57;0.70;;;0.70;;
19329;SDS011;9799;48.214;16.388;2023-02-03T03:40:23;1.10;;;1.00;;
19329;SDS011;9799;48.214;16.388;2023-02-03T03:43:48;2.60;;;1.20;;
19329;SDS011;9799;48.214;16.388;2023-02-03T03:47:13;1.37;;;1.00;;
19329;SDS011;9799;48.214;16.388;2023-02-03T03:50:41;1.27;;;1.00;;
19329;SDS011;9799;48.214;16.388;2023-02-03T03:54:07;1.40;;;1.00;;
19329;SDS011;9799;48.214;16.388;2023-02-03T03:57:33;1.47;;;0.97;;
19329;SDS011;9799;48.214;16.388;2023-02-03T04:01:00;1.07;;;0.97;;
19329;SDS011;9799;48.214;16.388;2023-02-03T04:04:25;0.90;;;0.80;;
19329;SDS011;9799;48.214;16.388;2023-02-03T04:07:47;0.77;;;0.70;;
19329;SDS011;9799;48.214;16.388;2023-02-03T04:11:08;2.97;;;0.80;;
19329;SDS011;9799;48.214;16.388;2023-02-03T04:14:30;0.73;;;0.60;;
19329;SDS011;9799;48.214;16.388;2023-02-03T04:17:54;0.73;;;0.53;;
19329;SDS011;9799;48.214;16.388;2023-02-03T04:21:15;0.50;;;0.50;;
19329;SDS011;9799;48.214;16.388;2023-02-03T04:24:37;0.50;;;0.50;;
19329;SDS011;9799;48.214;16.388;2023-02-03T04:27:58;1.03;;;0.60;;
19329;SDS011;9799;48.214;16.388;2023-02-03T04:31:19;1.10;;;0.77;;
19329;SDS011;9799;48.214;16.388;2023-02-03T04:34:44;0.63;;;0.60;;
19329;SDS011;9799;48.214;16.388;2023-02-03T04:38:05;0.50;;;0.50;;
19329;SDS011;9799;48.214;16.388;2023-02-03T04:41:27;0.63;;;0.50;;
19329;SDS011;9799;48.214;16.388;2023-02-03T04:44:48;0.30;;;0.30;;
19329;SDS011;9799;48.214;16.388;2023-02-03T04:48:09;0.50;;;0.50;;
19329;SDS011;9799;48.214;16.388;2023-02-03T04:51:32;0.53;;;0.50;;
19329;SDS011;9799;48.214;16.388;2023-02-03T04:54:53;1.13;;;0.53;;
19329;SDS011;9799;48.214;16.388;2023-02-03T04:58:14;0.50;;;0.50;;
19329;SDS011;9799;48.214;16.388;2023-02-03T05:01:35;0.60;;;0.60;;
19329;SDS011;9799;48.214;16.388;2023-02-03T05:04:57;1.10;;;1.00;;
19329;SDS011;9799;48.214;16.388;2023-02-03T05:08:19;0.57;;;0.57;;
19329;SDS011;9799;48.214;16.388;2023-02-03T05:11:40;0.70;;;0.67;;
19329;SDS011;9799;48.214;16.388;2023-02-03T05:15:02;0.83;;;0.83;;
19329;SDS011;9799;48.214;16.388;2023-02-03T05:18:23;0.50;;;0.50;;
19329;SDS011;9799;48.214;16.388;2023-02-03T05:21:45;0.63;;;0.60;;
19329;SDS011;9799;48.214;16.388;2023-02-03T05:25:08;0.93;;;0.90;;
19329;SDS011;9799;48.214;16.388;2023-02-03T05:28:30;0.67;;;0.67;;
19329;SDS011;9799;48.214;16.388;2023-02-03T05:31:51;3.07;;;0.70;;
19329;SDS011;9799;48.214;16.388;2023-02-03T05:35:12;1.47;;;1.03;;
19329;SDS011;9799;48.214;16.388;2023-02-03T05:38:33;1.00;;;0.90;;
19329;SDS011;9799;48.214;16.388;2023-02-03T05:41:56;0.73;;;0.73;;
19329;SDS011;9799;48.214;16.388;2023-02-03T05:45:17;1.10;;;1.00;;
19329;SDS011;9799;48.214;16.388;2023-02-03T05:48:39;1.00;;;0.90;;
19329;SDS011;9799;48.214;16.388;2023-02-03T05:52:00;4.17;;;3.03;;
19329;SDS011;9799;48.214;16.388;2023-02-03T05:55:21;1.03;;;0.80;;
19329;SDS011;9799;48.214;16.388;2023-02-03T05:58:43;1.80;;;0.93;;
19329;SDS011;9799;48.214;16.388;2023-02-03T06:02:05;0.93;;;0.87;;
19329;SDS011;9799;48.214;16.388;2023-02-03T06:05:26;0.80;;;0.80;;
19329;SDS011;9799;48.214;16.388;2023-02-03T06:08:48;0.63;;;0.63;;
19329;SDS011;9799;48.214;16.388;2023-02-03T06:12:10;2.63;;;0.90;;
19329;SDS011;9799;48.214;16.388;2023-02-03T06:15:33;0.77;;;0.77;;
19329;SDS011;9799;48.214;16.388;2023-02-03T06:18:54;0.97;;;0.70;;
19329;SDS011;9799;48.214;16.388;2023-02-03T06:22:18;1.43;;;0.97;;
19329;SDS011;9799;48.214;16.388;2023-02-03T06:25:39;1.20;;;1.03;;
19329;SDS011;9799;48.214;16.388;2023-02-03T06:29:00;0.60;;;0.60;;
19329;SDS011;9799;48.214;16.388;2023-02-03T06:32:22;1.13;;;1.00;;
19329;SDS011;9799;48.214;16.388;2023-02-03T06:35:44;0.60;;;0.60;;
19329;SDS011;9799;48.214;16.388;2023-02-03T06:39:05;0.60;;;0.60;;
19329;SDS011;9799;48.214;16.388;2023-02-03T06:42:27;0.77;;;0.70;;
19329;SDS011;9799;48.214;16.388;2023-02-03T06:45:48;0.80;;;0.70;;
19329;SDS011;9799;48.214;16.388;2023-02-03T06:49:10;1.00;;;0.80;;
19329;SDS011;9799;48.214;16.388;2023-02-03T06:52:32;1.07;;;0.73;;
19329;SDS011;9799;48.214;16.388;2023-02-03T06:55:53;2.47;;;2.27;;
19329;SDS011;9799;48.214;16.388;2023-02-03T06:59:14;1.03;;;1.00;;
19329;SDS011;9799;48.214;16.388;2023-02-03T07:02:35;0.93;;;0.80;;
19329;SDS011;9799;48.214;16.388;2023-02-03T07:05:58;0.87;;;0.87;;
19329;SDS011;9799;48.214;16.388;2023-02-03T07:09:19;1.00;;;0.80;;
19329;SDS011;9799;48.214;16.388;2023-02-03T07:12:40;0.90;;;0.77;;
19329;SDS011;9799;48.214;16.388;2023-02-03T07:16:02;1.47;;;0.80;;
19329;SDS011;9799;48.214;16.388;2023-02-03T07:19:24;1.07;;;0.87;;
19329;SDS011;9799;48.214;16.388;2023-02-03T07:22:51;1.40;;;1.17;;
19329;SDS011;9799;48.214;16.388;2023-02-03T07:26:12;0.77;;;0.77;;
19329;SDS011;9799;48.214;16.388;2023-02-03T07:29:34;1.33;;;0.70;;
19329;SDS011;9799;48.214;16.388;2023-02-03T07:32:55;0.97;;;0.80;;
19329;SDS011;9799;48.214;16.388;2023-02-03T07:36:16;1.07;;;0.90;;
19329;SDS011;9799;48.214;16.388;2023-02-03T07:39:39;1.00;;;0.90;;
19329;SDS011;9799;48.214;16.388;2023-02-03T07:43:00;4.00;;;1.40;;
19329;SDS011;9799;48.214;16.388;2023-02-03T07:46:22;1.23;;;1.13;;
19329;SDS011;9799;48.214;16.388;2023-02-03T07:49:43;2.60;;;1.67;;
19329;SDS011;9799;48.214;16.388;2023-02-03T07:53:04;1.53;;;1.27;;
19329;SDS011;9799;48.214;16.388;2023-02-03T07:56:29;1.70;;;1.30;;
19329;SDS011;9799;48.214;16.388;2023-02-03T07:59:50;1.13;;;1.00;;
19329;SDS011;9799;48.214;16.388;2023-02-03T08:03:12;5.63;;;1.10;;
19329;SDS011;9799;48.214;16.388;2023-02-03T08:06:33;1.43;;;1.30;;
19329;SDS011;9799;48.214;16.388;2023-02-03T08:09:54;1.30;;;1.20;;
19329;SDS011;9799;48.214;16.388;2023-02-03T08:13:17;1.30;;;1.20;;
19329;SDS011;9799;48.214;16.388;2023-02-03T08:16:38;1.73;;;1.63;;
19329;SDS011;9799;48.214;16.388;2023-02-03T08:19:59;2.80;;;1.63;;
19329;SDS011;9799;48.214;16.388;2023-02-03T08:23:20;1.97;;;1.50;;
19329;SDS011;9799;48.214;16.388;2023-02-03T08:26:42;1.83;;;1.67;;
19329;SDS011;9799;48.214;16.388;2023-02-03T08:30:05;2.43;;;1.30;;
19329;SDS011;9799;48.214;16.388;2023-02-03T08:33:27;1.57;;;1.27;;
19329;SDS011;9799;48.214;16.388;2023-02-03T08:36:49;1.83;;;1.30;;
19329;SDS011;9799;48.214;16.388;2023-02-03T08:40:10;1.80;;;1.50;;
19329;SDS011;9799;48.214;16.388;2023-02-03T08:43:32;1.63;;;1.30;;
19329;SDS011;9799;48.214;16.388;2023-02-03T08:46:56;1.47;;;1.37;;
19329;SDS011;9799;48.214;16.388;2023-02-03T08:50:17;3.83;;;1.50;;
19329;SDS011;9799;48.214;16.388;2023-02-03T08:53:39;2.07;;;1.33;;
19329;SDS011;9799;48.214;16.388;2023-02-03T08:57:00;14.23;;;10.00;;
19329;SDS011;9799;48.214;16.388;2023-02-03T09:00:21;2.83;;;2.13;;
19329;SDS011;9799;48.214;16.388;2023-02-03T09:03:44;1.87;;;1.40;;
19329;SDS011;9799;48.214;16.388;2023-02-03T09:07:05;3.20;;;2.23;;
19329;SDS011;9799;48.214;16.388;2023-02-03T09:10:27;2.33;;;2.13;;
19329;SDS011;9799;48.214;16.388;2023-02-03T09:13:48;4.90;;;2.03;;
19329;SDS011;9799;48.214;16.388;2023-02-03T09:17:10;3.27;;;2.10;;
19329;SDS011;9799;48.214;16.388;2023-02-03T09:20:32;2.93;;;2.07;;
19329;SDS011;9799;48.214;16.388;2023-02-03T09:23:54;3.40;;;2.03;;
19329;SDS011;9799;48.214;16.388;2023-02-03T09:27:15;4.50;;;1.83;;
19329;SDS011;9799;48.214;16.388;2023-02-03T09:30:36;3.83;;;2.13;;
19329;SDS011;9799;48.214;16.388;2023-02-03T09:33:57;3.80;;;3.43;;
19329;SDS011;9799;48.214;16.388;2023-02-03T09:37:20;2.97;;;2.07;;
19329;SDS011;9799;48.214;16.388;2023-02-03T09:40:41;1.90;;;1.53;;
19329;SDS011;9799;48.214;16.388;2023-02-03T09:44:03;1.73;;;1.10;;
19329;SDS011;9799;48.214;16.388;2023-02-03T09:47:31;1.87;;;1.10;;
19329;SDS011;9799;48.214;16.388;2023-02-03T09:50:55;1.60;;;1.20;;
19329;SDS011;9799;48.214;16.388;2023-02-03T09:54:19;3.67;;;1.33;;
19329;SDS011;9799;48.214;16.388;2023-02-03T09:57:46;1.40;;;1.20;;
19329;SDS011;9799;48.214;16.388;2023-02-03T10:01:15;4.07;;;1.27;;
19329;SDS011;9799;48.214;16.388;2023-02-03T10:04:40;2.97;;;1.60;;
19329;SDS011;9799;48.214;16.388;2023-02-03T10:08:12;1.60;;;1.27;;
19329;SDS011;9799;48.214;16.388;2023-02-03T10:11:49;3.77;;;1.40;;
19329;SDS011;9799;48.214;16.388;2023-02-03T10:15:51;2.67;;;1.20;;
19329;SDS011;9799;48.214;16.388;2023-02-03T10:19:36;2.03;;;1.60;;
19329;SDS011;9799;48.214;16.388;2023-02-03T10:23:03;2.37;;;1.10;;
19329;SDS011;9799;48.214;16.388;2023-02-03T10:26:30;3.47;;;1.10;;
19329;SDS011;9799;48.214;16.388;2023-02-03T10:29:55;2.10;;;1.27;;
19329;SDS011;9799;48.214;16.388;2023-02-03T10:33:20;0.93;;;0.80;;
19329;SDS011;9799;48.214;16.388;2023-02-03T10:36:45;2.37;;;1.40;;
19329;SDS011;9799;48.214;16.388;2023-02-03T10:40:13;7.03;;;1.40;;
19329;SDS011;9799;48.214;16.388;2023-02-03T10:43:36;3.03;;;1.00;;
19329;SDS011;9799;48.214;16.388;2023-02-03T10:47:16;1.43;;;1.33;;
19329;SDS011;9799;48.214;16.388;2023-02-03T10:50:43;1.47;;;1.10;;
19329;SDS011;9799;48.214;16.388;2023-02-03T10:54:15;1.87;;;1.20;;
19329;SDS011;9799;48.214;16.388;2023-02-03T10:57:47;2.10;;;1.50;;
19329;SDS011;9799;48.214;16.388;2023-02-03T11:01:09;1.50;;;1.10;;
19329;SDS011;9799;48.214;16.388;2023-02-03T11:04:33;4.50;;;1.60;;
19329;SDS011;9799;48.214;16.388;2023-02-03T11:07:55;3.90;;;1.67;;
19329;SDS011;9799;48.214;16.388;2023-02-03T11:11:19;1.30;;;1.10;;
19329;SDS011;9799;48.214;16.388;2023-02-03T11:14:43;1.70;;;1.07;;
19329;SDS011;9799;48.214;16.388;2023-02-03T11:18:21;2.93;;;1.33;;
19329;SDS011;9799;48.214;16.388;2023-02-03T11:21:57;1.10;;;1.00;;
19329;SDS011;9799;48.214;16.388;2023-02-03T11:25:21;2.83;;;1.23;;
19329;SDS011;9799;48.214;16.388;2023-02-03T11:28:48;1.70;;;1.07;;
19329;SDS011;9799;48.214;16.388;2023-02-03T11:32:16;1.00;;;0.90;;
19329;SDS011;9799;48.214;16.388;2023-02-03T11:35:39;2.70;;;1.10;;
19329;SDS011;9799;48.214;16.388;2023-02-03T11:39:24;2.33;;;1.03;;
19329;SDS011;9799;48.214;16.388;2023-02-03T11:42:58;1.37;;;0.93;;
19329;SDS011;9799;48.214;16.388;2023-02-03T11:46:20;2.63;;;1.00;;
19329;SDS011;9799;48.214;16.388;2023-02-03T11:53:44;1.20;;;1.10;;
19329;SDS011;9799;48.214;16.388;2023-02-03T11:57:19;6.47;;;3.97;;
19329;SDS011;9799;48.214;16.388;2023-02-03T12:00:49;3.03;;;1.73;;
19329;SDS011;9799;48.214;16.388;2023-02-03T12:04:39;1.50;;;1.20;;
19329;SDS011;9799;48.214;16.388;2023-02-03T12:08:15;2.73;;;1.03;;
19329;SDS011;9799;48.214;16.388;2023-02-03T12:11:47;1.90;;;1.20;;
19329;SDS011;9799;48.214;16.388;2023-02-03T12:15:30;1.13;;;1.03;;
19329;SDS011;9799;48.214;16.388;2023-02-03T12:19:07;1.87;;;1.07;;
19329;SDS011;9799;48.214;16.388;2023-02-03T12:22:35;1.60;;;1.37;;
19329;SDS011;9799;48.214;16.388;2023-02-03T12:26:07;3.20;;;1.40;;
19329;SDS011;9799;48.214;16.388;2023-02-03T12:29:34;2.53;;;1.50;;
19329;SDS011;9799;48.214;16.388;2023-02-03T12:33:03;1.30;;;1.10;;
19329;SDS011;9799;48.214;16.388;2023-02-03T12:36:32;2.90;;;1.33;;
19329;SDS011;9799;48.214;16.388;2023-02-03T12:40:00;1.50;;;1.00;;
19329;SDS011;9799;48.214;16.388;2023-02-03T12:43:25;1.43;;;1.10;;
19329;SDS011;9799;48.214;16.388;2023-02-03T12:46:57;3.07;;;1.40;;
19329;SDS011;9799;48.214;16.388;2023-02-03T12:50:28;1.57;;;1.30;;
19329;SDS011;9799;48.214;16.388;2023-02-03T12:53:55;1.70;;;1.60;;
19329;SDS011;9799;48.214;16.388;2023-02-03T12:57:23;1.77;;;1.10;;
19329;SDS011;9799;48.214;16.388;2023-02-03T13:00:50;2.40;;;1.20;;
19329;SDS011;9799;48.214;16.388;2023-02-03T13:04:20;0.93;;;0.90;;
19329;SDS011;9799;48.214;16.388;2023-02-03T13:07:51;0.87;;;0.87;;
19329;SDS011;9799;48.214;16.388;2023-02-03T13:11:18;1.87;;;1.30;;
19329;SDS011;9799;48.214;16.388;2023-02-03T13:14:44;3.17;;;1.50;;
19329;SDS011;9799;48.214;16.388;2023-02-03T13:18:12;5.93;;;2.50;;
19329;SDS011;9799;48.214;16.388;2023-02-03T13:21:39;1.30;;;1.10;;
19329;SDS011;9799;48.214;16.388;2023-02-03T13:25:04;1.20;;;1.10;;
19329;SDS011;9799;48.214;16.388;2023-02-03T13:28:38;1.70;;;1.50;;
19329;SDS011;9799;48.214;16.388;2023-02-03T13:32:17;6.77;;;1.30;;
19329;SDS011;9799;48.214;16.388;2023-02-03T13:35:51;1.30;;;1.07;;
19329;SDS011;9799;48.214;16.388;2023-02-03T13:39:29;3.53;;;1.00;;
19329;SDS011;9799;48.214;16.388;2023-02-03T13:43:01;1.10;;;1.00;;
19329;SDS011;9799;48.214;16.388;2023-02-03T13:46:25;2.23;;;1.30;;
19329;SDS011;9799;48.214;16.388;2023-02-03T13:49:50;2.70;;;1.10;;
19329;SDS011;9799;48.214;16.388;2023-02-03T13:53:15;1.20;;;1.10;;
19329;SDS011;9799;48.214;16.388;2023-02-03T13:56:39;2.13;;;1.30;;
19329;SDS011;9799;48.214;16.388;2023-02-03T14:00:02;1.50;;;1.30;;
19329;SDS011;9799;48.214;16.388;2023-02-03T14:03:41;2.63;;;1.30;;
19329;SDS011;9799;48.214;16.388;2023-02-03T14:07:19;1.43;;;1.07;;
19329;SDS011;9799;48.214;16.388;2023-02-03T14:10:48;3.27;;;1.43;;
19329;SDS011;9799;48.214;16.388;2023-02-03T14:14:58;1.77;;;1.10;;
19329;SDS011;9799;48.214;16.388;2023-02-03T14:18:31;4.90;;;1.50;;
19329;SDS011;9799;48.214;16.388;2023-02-03T14:21:54;2.03;;;1.40;;
19329;SDS011;9799;48.214;16.388;2023-02-03T14:25:19;2.23;;;1.13;;
19329;SDS011;9799;48.214;16.388;2023-02-03T14:28:41;4.43;;;1.23;;
19329;SDS011;9799;48.214;16.388;2023-02-03T14:32:06;1.77;;;1.13;;
19329;SDS011;9799;48.214;16.388;2023-02-03T14:35:30;1.57;;;1.30;;
19329;SDS011;9799;48.214;16.388;2023-02-03T14:38:53;2.20;;;1.27;;
19329;SDS011;9799;48.214;16.388;2023-02-03T14:42:21;2.00;;;1.37;;
19329;SDS011;9799;48.214;16.388;2023-02-03T14:46:12;1.97;;;1.30;;
19329;SDS011;9799;48.214;16.388;2023-02-03T14:49:47;3.50;;;1.30;;
19329;SDS011;9799;48.214;16.388;2023-02-03T14:53:25;1.73;;;1.47;;
19329;SDS011;9799;48.214;16.388;2023-02-03T14:57:02;1.77;;;1.37;;
19329;SDS011;9799;48.214;16.388;2023-02-03T15:00:35;4.40;;;1.40;;
19329;SDS011;9799;48.214;16.388;2023-02-03T15:04:19;2.37;;;1.30;;
19329;SDS011;9799;48.214;16.388;2023-02-03T15:07:43;1.60;;;1.27;;
19329;SDS011;9799;48.214;16.388;2023-02-03T15:11:22;1.10;;;1.00;;
19329;SDS011;9799;48.214;16.388;2023-02-03T15:14:45;1.37;;;1.10;;
19329;SDS011;9799;48.214;16.388;2023-02-03T15:18:18;2.70;;;1.10;;
19329;SDS011;9799;48.214;16.388;2023-02-03T15:21:41;2.17;;;1.37;;
19329;SDS011;9799;48.214;16.388;2023-02-03T15:25:02;3.50;;;1.50;;
19329;SDS011;9799;48.214;16.388;2023-02-03T15:28:36;1.63;;;1.30;;
19329;SDS011;9799;48.214;16.388;2023-02-03T15:32:01;2.70;;;1.60;;
19329;SDS011;9799;48.214;16.388;2023-02-03T15:35:28;2.87;;;1.60;;
19329;SDS011;9799;48.214;16.388;2023-02-03T15:38:53;2.03;;;1.40;;
19329;SDS011;9799;48.214;16.388;2023-02-03T15:42:24;1.70;;;1.30;;
19329;SDS011;9799;48.214;16.388;2023-02-03T15:45:54;1.83;;;1.23;;
19329;SDS011;9799;48.214;16.388;2023-02-03T15:49:22;1.77;;;1.30;;
19329;SDS011;9799;48.214;16.388;2023-02-03T15:52:47;2.27;;;1.03;;
19329;SDS011;9799;48.214;16.388;2023-02-03T15:56:12;1.20;;;1.10;;
19329;SDS011;9799;48.214;16.388;2023-02-03T15:59:42;1.10;;;1.00;;
19329;SDS011;9799;48.214;16.388;2023-02-03T16:03:14;1.50;;;1.20;;
19329;SDS011;9799;48.214;16.388;2023-02-03T16:06:39;2.40;;;1.50;;
19329;SDS011;9799;48.214;16.388;2023-02-03T16:10:05;2.33;;;1.00;;
19329;SDS011;9799;48.214;16.388;2023-02-03T16:13:26;2.27;;;1.27;;
19329;SDS011;9799;48.214;16.388;2023-02-03T16:16:50;2.93;;;1.40;;
19329;SDS011;9799;48.214;16.388;2023-02-03T16:20:24;1.20;;;1.10;;
19329;SDS011;9799;48.214;16.388;2023-02-03T16:23:48;1.77;;;1.17;;
19329;SDS011;9799;48.214;16.388;2023-02-03T16:27:19;1.63;;;1.40;;
19329;SDS011;9799;48.214;16.388;2023-02-03T16:30:52;1.30;;;1.20;;
19329;SDS011;9799;48.214;16.388;2023-02-03T16:34:32;2.33;;;1.43;;
19329;SDS011;9799;48.214;16.388;2023-02-03T16:38:13;2.80;;;1.90;;
19329;SDS011;9799;48.214;16.388;2023-02-03T16:41:52;2.90;;;2.00;;
19329;SDS011;9799;48.214;16.388;2023-02-03T16:45:32;3.57;;;2.40;;
19329;SDS011;9799;48.214;16.388;2023-02-03T16:49:10;1.60;;;1.50;;
19329;SDS011;9799;48.214;16.388;2023-02-03T16:52:49;2.27;;;1.77;;
19329;SDS011;9799;48.214;16.388;2023-02-03T16:56:12;2.57;;;1.97;;
19329;SDS011;9799;48.214;16.388;2023-02-03T16:59:37;1.40;;;1.30;;
19329;SDS011;9799;48.214;16.388;2023-02-03T17:03:02;1.80;;;1.43;;
19329;SDS011;9799;48.214;16.388;2023-02-03T17:06:24;2.30;;;1.60;;
19329;SDS011;9799;48.214;16.388;2023-02-03T17:09:45;1.80;;;1.50;;
19329;SDS011;9799;48.214;16.388;2023-02-03T17:13:07;3.63;;;2.60;;
19329;SDS011;9799;48.214;16.388;2023-02-03T17:16:30;4.03;;;2.20;;
19329;SDS011;9799;48.214;16.388;2023-02-03T17:19:51;3.73;;;2.20;;
19329;SDS011;9799;48.214;16.388;2023-02-03T17:23:13;1.60;;;1.50;;
19329;SDS011;9799;48.214;16.388;2023-02-03T17:26:35;2.60;;;1.90;;
19329;SDS011;9799;48.214;16.388;2023-02-03T17:29:58;3.20;;;2.17;;
19329;SDS011;9799;48.214;16.388;2023-02-03T17:33:20;3.53;;;1.90;;
19329;SDS011;9799;48.214;16.388;2023-02-03T17:36:42;2.10;;;1.50;;
19329;SDS011;9799;48.214;16.388;2023-02-03T17:40:03;2.33;;;1.30;;
19329;SDS011;9799;48.214;16.388;2023-02-03T17:43:26;2.10;;;1.80;;
19329;SDS011;9799;48.214;16.388;2023-02-03T17:46:52;1.70;;;1.57;;
19329;SDS011;9799;48.214;16.388;2023-02-03T17:50:14;1.60;;;1.50;;
19329;SDS011;9799;48.214;16.388;2023-02-03T17:53:36;2.90;;;2.00;;
19329;SDS011;9799;48.214;16.388;2023-02-03T17:56:58;2.27;;;2.00;;
19329;SDS011;9799;48.214;16.388;2023-02-03T18:00:21;6.37;;;2.30;;
19329;SDS011;9799;48.214;16.388;2023-02-03T18:03:44;2.07;;;1.87;;
19329;SDS011;9799;48.214;16.388;2023-02-03T18:07:06;2.83;;;2.17;;
19329;SDS011;9799;48.214;16.388;2023-02-03T18:10:27;3.00;;;2.13;;
19329;SDS011;9799;48.214;16.388;2023-02-03T18:13:49;4.50;;;2.40;;
19329;SDS011;9799;48.214;16.388;2023-02-03T18:17:11;2.67;;;1.80;;
19329;SDS011;9799;48.214;16.388;2023-02-03T18:20:35;3.77;;;2.10;;
19329;SDS011;9799;48.214;16.388;2023-02-03T18:23:56;3.33;;;1.83;;
19329;SDS011;9799;48.214;16.388;2023-02-03T18:27:20;2.23;;;1.80;;
19329;SDS011;9799;48.214;16.388;2023-02-03T18:30:42;2.23;;;1.67;;
19329;SDS011;9799;48.214;16.388;2023-02-03T18:34:05;2.03;;;1.40;;
19329;SDS011;9799;48.214;16.388;2023-02-03T18:37:28;2.47;;;1.43;;
19329;SDS011;9799;48.214;16.388;2023-02-03T18:40:51;1.60;;;1.20;;
19329;SDS011;9799;48.214;16.388;2023-02-03T18:44:13;1.90;;;1.20;;
19329;SDS011;9799;48.214;16.388;2023-02-03T18:47:36;1.60;;;1.00;;
19329;SDS011;9799;48.214;16.388;2023-02-03T18:50:58;2.23;;;1.30;;
19329;SDS011;9799;48.214;16.388;2023-02-03T18:54:23;1.50;;;1.40;;
19329;SDS011;9799;48.214;16.388;2023-02-03T18:57:48;1.13;;;0.90;;
19329;SDS011;9799;48.214;16.388;2023-02-03T19:01:17;2.20;;;0.90;;
19329;SDS011;9799;48.214;16.388;2023-02-03T19:04:40;1.87;;;1.37;;
19329;SDS011;9799;48.214;16.388;2023-02-03T19:08:02;1.70;;;1.23;;
19329;SDS011;9799;48.214;16.388;2023-02-03T19:11:26;1.73;;;1.00;;
19329;SDS011;9799;48.214;16.388;2023-02-03T19:14:48;3.37;;;1.60;;
19329;SDS011;9799;48.214;16.388;2023-02-03T19:18:11;2.23;;;1.30;;
19329;SDS011;9799;48.214;16.388;2023-02-03T19:21:34;2.80;;;1.57;;
19329;SDS011;9799;48.214;16.388;2023-02-03T19:24:58;1.53;;;1.00;;
19329;SDS011;9799;48.214;16.388;2023-02-03T19:28:22;1.00;;;0.77;;
19329;SDS011;9799;48.214;16.388;2023-02-03T19:31:44;2.70;;;1.20;;
19329;SDS011;9799;48.214;16.388;2023-02-03T19:35:07;1.10;;;1.00;;
19329;SDS011;9799;48.214;16.388;2023-02-03T19:38:29;1.57;;;1.20;;
19329;SDS011;9799;48.214;16.388;2023-02-03T19:41:51;2.33;;;1.20;;
19329;SDS011;9799;48.214;16.388;2023-02-03T19:45:19;1.70;;;1.30;;
19329;SDS011;9799;48.214;16.388;2023-02-03T19:48:44;5.93;;;2.20;;
19329;SDS011;9799;48.214;16.388;2023-02-03T19:52:06;6.60;;;1.80;;
19329;SDS011;9799;48.214;16.388;2023-02-03T19:55:30;2.20;;;1.37;;
19329;SDS011;9799;48.214;16.388;2023-02-03T19:58:52;3.07;;;1.73;;
19329;SDS011;9799;48.214;16.388;2023-02-03T20:02:16;4.77;;;3.07;;
19329;SDS011;9799;48.214;16.388;2023-02-03T20:05:38;4.30;;;3.10;;
19329;SDS011;9799;48.214;16.388;2023-02-03T20:09:00;2.27;;;1.90;;
19329;SDS011;9799;48.214;16.388;2023-02-03T20:12:24;3.80;;;1.90;;
19329;SDS011;9799;48.214;16.388;2023-02-03T20:15:50;1.93;;;1.60;;
19329;SDS011;9799;48.214;16.388;2023-02-03T20:19:14;1.97;;;1.77;;
19329;SDS011;9799;48.214;16.388;2023-02-03T20:22:37;2.97;;;1.50;;
19329;SDS011;9799;48.214;16.388;2023-02-03T20:26:00;3.53;;;1.70;;
19329;SDS011;9799;48.214;16.388;2023-02-03T20:29:22;2.43;;;1.60;;
19329;SDS011;9799;48.214;16.388;2023-02-03T20:32:47;3.60;;;1.80;;
19329;SDS011;9799;48.214;16.388;2023-02-03T20:36:12;4.10;;;2.30;;
19329;SDS011;9799;48.214;16.388;2023-02-03T20:39:34;5.63;;;2.63;;
19329;SDS011;9799;48.214;16.388;2023-02-03T20:42:55;3.63;;;2.23;;